Time;durP1;ratioP1;P1;durP2;ratioP2;P2;SDS_P1;SDS_P2;PMS_P1;PMS_P2;Temp;Humidity;BMP_temperature;BMP_pressure;BME280_temperature;BME280_humidity;BME280_pressure;Samples;Min_cycle;Max_cycle;Signal;HPM_P1;HPM_P2
2021/04/01 00:01:35;;;;;;;47.90;25.42;;;15.20;61.60;;;;;;5095097;28;20450;-74
2021/04/01 00:04:01;;;;;;;50.63;26.10;;;15.30;62.10;;;;;;5073200;28;20090;-74
2021/04/01 00:06:26;;;;;;;51.13;27.23;;;15.20;62.50;;;;;;5072886;28;20067;-75
2021/04/01 00:08:52;;;;;;;52.63;27.75;;;15.30;62.70;;;;;;5074844;28;20039;-74
2021/04/01 00:11:18;;;;;;;48.17;25.63;;;15.20;62.30;;;;;;5074479;28;20025;-74
2021/04/01 00:13:43;;;;;;;52.15;27.00;;;15.20;62.00;;;;;;5075070;28;20029;-74
2021/04/01 00:16:09;;;;;;;48.50;27.77;;;15.20;61.60;;;;;;5055702;28;20467;-74
2021/04/01 00:18:35;;;;;;;53.47;27.90;;;15.20;61.60;;;;;;5074466;28;20020;-74
2021/04/01 00:21:02;;;;;;;44.92;24.80;;;15.20;61.60;;;;;;5074429;28;20099;-74
2021/04/01 00:23:28;;;;;;;45.30;23.98;;;15.20;61.70;;;;;;5074517;28;20051;-74
2021/04/01 00:25:53;;;;;;;50.80;24.50;;;15.30;62.40;;;;;;5074614;28;20400;-74
2021/04/01 00:28:19;;;;;;;47.88;25.20;;;15.30;62.80;;;;;;5074660;28;20025;-74
2021/04/01 00:30:45;;;;;;;45.88;24.58;;;15.20;62.90;;;;;;5074573;28;20032;-74
2021/04/01 00:33:10;;;;;;;44.70;24.52;;;15.20;63.10;;;;;;5086319;28;20509;-74
2021/04/01 00:35:36;;;;;;;47.28;24.85;;;15.20;63.40;;;;;;5094788;28;20103;-74
2021/04/01 00:38:02;;;;;;;44.78;25.08;;;15.20;63.50;;;;;;5094519;28;20111;-74
2021/04/01 00:40:28;;;;;;;43.38;24.55;;;15.10;63.60;;;;;;5094256;28;20016;-82
2021/04/01 00:42:53;;;;;;;46.17;25.27;;;15.10;64.60;;;;;;5076218;28;20098;-82
2021/04/01 00:45:20;;;;;;;44.80;25.40;;;15.10;64.20;;;;;;5090783;28;20021;-82
2021/04/01 00:47:48;;;;;;;42.13;24.23;;;15.10;64.10;;;;;;5093236;28;20107;-81
2021/04/01 00:50:16;;;;;;;43.17;24.40;;;15.10;64.00;;;;;;5093746;28;20024;-82
2021/04/01 00:52:42;;;;;;;46.72;24.65;;;15.00;64.20;;;;;;5093967;28;20024;-81
2021/04/01 00:55:09;;;;;;;47.30;25.63;;;15.00;64.20;;;;;;5094028;28;20024;-81
2021/04/01 00:57:37;;;;;;;47.28;25.77;;;15.00;64.20;;;;;;5094095;28;20378;-82
2021/04/01 01:00:06;;;;;;;46.15;25.63;;;15.00;64.40;;;;;;5093929;28;20054;-82
2021/04/01 01:02:31;;;;;;;49.58;27.52;;;15.00;64.60;;;;;;5093851;28;20364;-82
2021/04/01 01:04:58;;;;;;;50.50;25.58;;;15.00;64.50;;;;;;5075635;28;20062;-82
2021/04/01 01:07:24;;;;;;;44.75;25.42;;;15.10;64.60;;;;;;5075798;28;20082;-82
2021/04/01 01:09:50;;;;;;;47.03;27.23;;;15.00;64.50;;;;;;5059008;28;20028;-82
2021/04/01 01:12:15;;;;;;;44.67;25.77;;;15.00;64.50;;;;;;5076954;28;20024;-82
2021/04/01 01:14:41;;;;;;;44.58;26.42;;;15.00;64.30;;;;;;5075541;28;20497;-81
2021/04/01 01:17:07;;;;;;;49.80;26.73;;;15.00;64.30;;;;;;5094500;28;20412;-82
2021/04/01 01:19:37;;;;;;;45.05;26.83;;;15.00;64.60;;;;;;5093818;28;20486;-81
2021/04/01 01:22:04;;;;;;;47.17;26.85;;;15.00;65.10;;;;;;5093628;28;20423;-82
2021/04/01 01:24:30;;;;;;;46.97;25.38;;;15.00;65.50;;;;;;5076041;28;20028;-82
2021/04/01 01:26:56;;;;;;;48.92;26.05;;;14.90;65.60;;;;;;5093509;28;20097;-82
2021/04/01 01:29:21;;;;;;;47.40;26.48;;;14.90;65.70;;;;;;5075756;28;20046;-82
2021/04/01 01:31:50;;;;;;;45.72;25.02;;;14.90;65.50;;;;;;5093545;28;20124;-82
2021/04/01 01:34:17;;;;;;;47.83;26.40;;;14.90;65.50;;;;;;5076050;28;20051;-81
2021/04/01 01:36:43;;;;;;;47.60;26.65;;;14.90;65.70;;;;;;5075384;28;20024;-81
2021/04/01 01:39:09;;;;;;;48.00;25.58;;;14.90;65.40;;;;;;5075448;28;20024;-82
2021/04/01 01:41:35;;;;;;;46.83;26.67;;;14.90;65.40;;;;;;5093412;28;20033;-82
2021/04/01 01:44:02;;;;;;;49.72;25.90;;;14.90;65.10;;;;;;5075370;28;20039;-81
2021/04/01 01:46:28;;;;;;;49.08;26.42;;;14.80;64.80;;;;;;5093241;28;20162;-82
2021/04/01 01:48:59;;;;;;;48.75;25.45;;;14.80;64.40;;;;;;5093291;28;20095;-81
2021/04/01 01:51:26;;;;;;;49.08;26.35;;;14.80;64.30;;;;;;5093389;28;20028;-81
2021/04/01 01:53:51;;;;;;;48.60;26.92;;;14.80;64.10;;;;;;5058646;28;20021;-82
2021/04/01 01:56:21;;;;;;;46.45;24.65;;;14.80;64.80;;;;;;5075302;28;20479;-82
2021/04/01 01:58:51;;;;;;;51.13;28.95;;;14.80;64.20;;;;;;5075495;28;20024;-82
2021/04/01 02:01:20;;;;;;;52.03;28.60;;;14.70;65.50;;;;;;5093173;28;20103;-74
2021/04/01 02:03:45;;;;;;;50.63;28.65;;;14.70;64.60;;;;;;5093425;28;20020;-81
2021/04/01 02:06:15;;;;;;;53.88;28.30;;;14.60;64.40;;;;;;5074957;28;20059;-81
2021/04/01 02:08:41;;;;;;;50.38;28.15;;;14.50;64.40;;;;;;5093081;28;20043;-81
2021/04/01 02:11:08;;;;;;;53.55;29.33;;;14.50;64.30;;;;;;5075055;28;20484;-82
2021/04/01 02:13:33;;;;;;;52.90;29.10;;;14.50;64.00;;;;;;5093050;28;20016;-82
2021/04/01 02:16:00;;;;;;;58.08;30.48;;;14.40;63.90;;;;;;5075061;28;20023;-82
2021/04/01 02:18:28;;;;;;;58.80;30.85;;;14.40;63.70;;;;;;5093098;28;20024;-82
2021/04/01 02:20:55;;;;;;;58.45;31.23;;;14.40;63.50;;;;;;5092977;28;20024;-82
2021/04/01 02:23:23;;;;;;;53.70;29.13;;;14.30;63.60;;;;;;5074864;28;20372;-82
2021/04/01 02:25:50;;;;;;;61.50;32.67;;;14.30;63.50;;;;;;5092911;28;20478;-80
2021/04/01 02:28:18;;;;;;;54.10;31.58;;;14.30;63.50;;;;;;5074758;28;20054;-81
2021/04/01 02:30:48;;;;;;;57.90;31.58;;;14.30;63.70;;;;;;5075234;28;20480;-82
2021/04/01 02:33:14;;;;;;;59.72;31.85;;;14.20;63.90;;;;;;5092838;28;20115;-81
2021/04/01 02:35:40;;;;;;;59.80;30.90;;;14.20;64.00;;;;;;5074802;28;20024;-82
2021/04/01 02:38:07;;;;;;;61.60;32.22;;;14.20;64.10;;;;;;5074942;28;20036;-82
2021/04/01 02:40:34;;;;;;;61.22;33.40;;;14.20;64.20;;;;;;5077502;28;20085;-82
2021/04/01 02:43:00;;;;;;;58.65;32.60;;;14.20;64.40;;;;;;5096439;28;20107;-81
2021/04/01 02:45:26;;;;;;;61.67;33.30;;;14.10;64.60;;;;;;5078459;28;20050;-81
2021/04/01 02:47:52;;;;;;;66.65;36.28;;;14.10;64.70;;;;;;5078369;28;20039;-81
2021/04/01 02:50:18;;;;;;;67.72;35.70;;;14.10;64.70;;;;;;5061534;28;20024;-82
2021/04/01 02:52:44;;;;;;;68.20;35.15;;;14.10;64.60;;;;;;5096233;28;20028;-82
2021/04/01 02:55:11;;;;;;;66.85;33.47;;;14.00;64.30;;;;;;5096712;28;20093;-81
2021/04/01 02:57:37;;;;;;;59.22;33.35;;;14.00;64.20;;;;;;5078174;28;20074;-82
2021/04/01 03:00:11;;;;;;;61.67;33.03;;;14.10;64.10;;;;;;5078363;28;20032;-80
2021/04/01 03:02:39;;;;;;;54.97;31.52;;;14.00;64.30;;;;;;5096251;28;20482;-79
2021/04/01 03:05:07;;;;;;;59.38;31.00;;;14.00;64.40;;;;;;5078510;28;20139;-79
2021/04/01 03:07:35;;;;;;;62.17;32.72;;;14.00;64.40;;;;;;5078485;28;20039;-80
2021/04/01 03:10:00;;;;;;;62.40;31.40;;;14.00;64.10;;;;;;5096132;28;20028;-80
2021/04/01 03:12:26;;;;;;;59.33;31.90;;;14.00;64.10;;;;;;5077814;28;20028;-79
2021/04/01 03:14:52;;;;;;;65.85;33.22;;;14.00;64.80;;;;;;5077795;28;20028;-79
2021/04/01 03:17:18;;;;;;;71.18;34.28;;;14.00;64.50;;;;;;5061327;28;20520;-79
2021/04/01 03:19:44;;;;;;;73.00;35.17;;;14.00;63.80;;;;;;5095825;28;20024;-79
2021/04/01 03:22:09;;;;;;;65.93;33.05;;;14.00;63.10;;;;;;5044506;28;20024;-80
2021/04/01 03:24:35;;;;;;;73.55;34.28;;;14.00;62.80;;;;;;5096302;28;20352;-80
2021/04/01 03:27:01;;;;;;;70.40;34.20;;;14.10;62.50;;;;;;5077748;28;20433;-80
2021/04/01 03:29:26;;;;;;;72.82;34.53;;;14.10;62.30;;;;;;5060904;28;20062;-80
2021/04/01 03:31:52;;;;;;;74.93;34.28;;;14.10;62.10;;;;;;5060896;28;20044;-79
2021/04/01 03:34:17;;;;;;;70.25;34.20;;;14.10;61.90;;;;;;5095435;28;20036;-79
2021/04/01 03:36:45;;;;;;;72.60;35.45;;;14.00;61.70;;;;;;5077285;28;20506;-79
2021/04/01 03:39:12;;;;;;;74.05;34.10;;;14.00;61.40;;;;;;5077201;28;20471;-80
2021/04/01 03:41:38;;;;;;;65.63;32.25;;;14.00;61.30;;;;;;5077628;28;20035;-80
2021/04/01 03:44:03;;;;;;;70.07;33.42;;;14.00;61.40;;;;;;5095422;28;20035;-80
2021/04/01 03:46:29;;;;;;;64.32;32.05;;;14.00;61.30;;;;;;5095342;28;20391;-79
2021/04/01 03:48:55;;;;;;;67.28;31.92;;;14.10;61.20;;;;;;5095311;28;20409;-74
2021/04/01 03:51:21;;;;;;;68.60;31.75;;;14.00;61.10;;;;;;5076930;28;20036;-75
2021/04/01 03:53:46;;;;;;;64.13;31.15;;;13.90;62.10;;;;;;5076905;28;20383;-74
2021/04/01 03:56:12;;;;;;;69.90;32.47;;;13.90;61.30;;;;;;5094798;28;20371;-74
2021/04/01 03:58:59;;;;;;;64.03;32.40;;;13.90;61.40;;;;;;5095295;28;20086;-75
2021/04/01 04:04:08;;;;;;;60.03;31.05;;;13.80;61.80;;;;;;5095192;28;20040;-74
2021/04/01 04:12:15;;;;;;;61.33;31.15;;;13.60;62.80;;;;;;5095171;28;20465;-74
2021/04/01 04:14:47;;;;;;;59.85;31.35;;;13.60;63.20;;;;;;5078543;28;20036;-74
2021/04/01 04:17:13;;;;;;;67.35;32.03;;;13.50;63.60;;;;;;5076060;28;20478;-74
2021/04/01 04:19:39;;;;;;;63.03;30.70;;;13.40;64.10;;;;;;5094944;28;20078;-74
2021/04/01 04:22:05;;;;;;;66.20;35.17;;;13.40;66.10;;;;;;5094583;28;20056;-74
2021/04/01 04:24:35;;;;;;;62.88;32.70;;;13.40;65.80;;;;;;5094580;28;20379;-74
2021/04/01 04:27:14;;;;;;;65.60;33.10;;;13.30;66.00;;;;;;5094326;28;20028;-74
2021/04/01 04:29:40;;;;;;;59.95;31.10;;;13.20;66.20;;;;;;5094301;28;20032;-74
2021/04/01 04:32:06;;;;;;;57.40;32.13;;;13.00;66.20;;;;;;5094339;28;20032;-74
2021/04/01 04:34:32;;;;;;;64.67;31.90;;;13.10;66.00;;;;;;5092388;28;20031;-73
2021/04/01 04:36:57;;;;;;;66.63;33.80;;;13.10;66.30;;;;;;5076043;28;20387;-73
2021/04/01 04:39:23;;;;;;;62.60;32.22;;;13.00;66.60;;;;;;5075918;28;20032;-73
2021/04/01 04:41:49;;;;;;;66.60;33.93;;;12.90;66.80;;;;;;5094360;28;20032;-81
2021/04/01 04:44:14;;;;;;;65.57;31.70;;;12.90;66.80;;;;;;5075918;28;20457;-80
2021/04/01 04:46:40;;;;;;;62.80;32.47;;;12.90;66.80;;;;;;5042735;28;20115;-80
2021/04/01 04:49:05;;;;;;;60.57;31.37;;;12.80;66.80;;;;;;5076016;28;20050;-80
2021/04/01 04:51:31;;;;;;;63.93;32.97;;;12.70;66.80;;;;;;5094166;28;20040;-80
2021/04/01 04:53:57;;;;;;;66.03;35.20;;;12.70;66.80;;;;;;5075901;28;20032;-80
2021/04/01 04:56:23;;;;;;;64.20;30.77;;;12.70;67.00;;;;;;5075923;28;20032;-80
2021/04/01 05:09:38;;;;;;;68.67;32.80;;;12.60;67.90;;;;;;4999943;28;20160;-72
2021/04/01 05:12:04;;;;;;;58.17;29.70;;;12.60;68.60;;;;;;5063020;28;20048;-73
2021/04/01 05:14:30;;;;;;;60.77;30.30;;;12.60;67.90;;;;;;5073199;28;20056;-73
2021/04/01 05:16:56;;;;;;;58.93;30.43;;;12.50;67.70;;;;;;5087210;28;20479;-73
2021/04/01 05:19:22;;;;;;;62.40;32.47;;;12.50;67.90;;;;;;5091218;28;20040;-73
2021/04/01 05:24:29;;;;;;;67.23;32.77;;;12.50;69.10;;;;;;5092761;28;20037;-73
2021/04/01 05:29:31;;;;;;;63.20;30.13;;;12.40;69.50;;;;;;5093341;28;20028;-73
2021/04/01 05:31:56;;;;;;;63.20;30.30;;;12.40;69.60;;;;;;5093427;28;20035;-73
2021/04/01 05:34:24;;;;;;;63.57;30.50;;;12.30;69.30;;;;;;5092782;28;20104;-73
2021/04/01 05:36:52;;;;;;;59.43;30.23;;;12.40;69.40;;;;;;5074920;28;20377;-72
2021/04/01 05:39:20;;;;;;;63.40;30.33;;;12.40;69.60;;;;;;5093202;28;20028;-73
2021/04/01 05:41:52;;;;;;;55.43;28.13;;;12.40;69.60;;;;;;5092980;28;20482;-78
2021/04/01 05:44:33;;;;;;;56.50;30.93;;;12.30;70.00;;;;;;5093162;28;20032;-78
2021/04/01 05:52:50;;;;;;;55.47;30.00;;;12.20;70.30;;;;;;5093725;28;20040;-78
2021/04/01 05:58:14;;;;;;;57.40;27.20;;;12.10;70.10;;;;;;5093461;28;20039;-79
2021/04/01 06:03:49;;;;;;;49.80;25.93;;;12.00;69.80;;;;;;5078913;28;20027;-79
2021/04/01 06:06:20;;;;;;;52.10;26.17;;;12.10;69.80;;;;;;5093015;28;20062;-78
2021/04/01 06:08:51;;;;;;;58.23;27.00;;;12.10;69.60;;;;;;5093039;28;20637;-78
2021/04/01 06:11:21;;;;;;;55.97;27.00;;;12.10;69.40;;;;;;5076047;28;20521;-78
2021/04/01 06:14:12;;;;;;;61.93;27.90;;;12.20;69.60;;;;;;5075333;28;20047;-78
2021/04/01 06:16:40;;;;;;;58.77;28.00;;;12.20;69.50;;;;;;5078451;28;20487;-78
2021/04/01 06:19:14;;;;;;;62.37;27.50;;;12.30;69.60;;;;;;5078493;28;20043;-78
2021/04/01 06:21:45;;;;;;;63.40;30.75;;;12.30;69.40;;;;;;5058707;28;20045;-79
2021/04/01 06:24:23;;;;;;;67.40;30.97;;;12.40;69.60;;;;;;5058471;28;20099;-78
2021/04/01 06:27:01;;;;;;;69.37;31.70;;;12.50;69.50;;;;;;5059127;28;20120;-78
2021/04/01 06:29:30;;;;;;;64.53;29.10;;;12.50;69.50;;;;;;5076476;28;20032;-79
2021/04/01 06:31:58;;;;;;;63.47;32.87;;;12.60;69.50;;;;;;5076526;28;20107;-79
2021/04/01 06:34:40;;;;;;;69.67;34.13;;;12.60;69.50;;;;;;5042037;28;20431;-78
2021/04/01 06:40:05;;;;;;;71.23;33.13;;;12.60;69.40;;;;;;5076475;28;20498;-78
2021/04/01 06:42:42;;;;;;;70.77;33.80;;;12.70;69.50;;;;;;5075957;28;20044;-79
2021/04/01 06:45:09;;;;;;;68.47;33.70;;;12.70;69.60;;;;;;5076064;28;20059;-79
2021/04/01 06:47:37;;;;;;;70.18;34.40;;;12.70;69.50;;;;;;5060714;28;20028;-78
2021/04/01 06:50:15;;;;;;;84.67;40.10;;;12.80;69.60;;;;;;5076347;28;20467;-78
2021/04/01 06:52:50;;;;;;;91.77;41.80;;;12.80;69.90;;;;;;5076130;28;20562;-78
2021/04/01 06:55:28;;;;;;;81.97;39.33;;;12.90;69.80;;;;;;5058572;28;20067;-78
2021/04/01 06:58:09;;;;;;;88.27;41.67;;;12.90;69.50;;;;;;5075188;28;20031;-78
2021/04/01 07:03:13;;;;;;;78.93;38.20;;;13.00;69.40;;;;;;5096466;28;20028;-78
2021/04/01 07:05:47;;;;;;;93.17;42.10;;;13.00;70.20;;;;;;5075674;28;20105;-78
2021/04/01 07:08:15;;;;;;;84.32;39.47;;;13.10;69.50;;;;;;5079136;28;20032;-78
2021/04/01 07:13:26;;;;;;;87.43;43.63;;;13.10;69.50;;;;;;5096042;28;20036;-79
2021/04/01 07:15:58;;;;;;;80.57;41.08;;;13.10;69.40;;;;;;5095796;28;20020;-79
2021/04/01 07:18:39;;;;;;;84.82;42.53;;;13.20;69.40;;;;;;5077433;28;20111;-78
2021/04/01 07:22:18;;;;;;;90.25;42.35;;;13.20;69.40;;;;;;5060319;28;20107;-78
2021/04/01 07:30:47;;;;;;;89.80;42.63;;;13.20;69.50;;;;;;5075052;28;20486;-78
2021/04/01 07:46:32;;;;;;;98.25;48.95;;;13.60;69.00;;;;;;5095872;28;20039;-78
2021/04/01 07:49:09;;;;;;;110.43;53.05;;;13.60;69.10;;;;;;5077140;28;20024;-79
2021/04/01 07:54:13;;;;;;;108.97;53.13;;;13.70;68.90;;;;;;5095088;28;20111;-78
2021/04/01 08:04:42;;;;;;;;;;;13.90;68.70;;;;;;5095579;28;20036;-78
2021/04/01 08:07:15;;;;;;;108.50;53.60;;;13.90;68.70;;;;;;5076691;28;19978;-78
2021/04/01 08:09:48;;;;;;;106.80;52.35;;;14.00;68.40;;;;;;5077064;28;20478;-78
2021/04/01 08:12:28;;;;;;;113.20;55.38;;;14.10;68.40;;;;;;5076953;28;20042;-78
2021/04/01 08:15:14;;;;;;;104.65;54.95;;;14.10;68.20;;;;;;5077171;28;20074;-78
2021/04/01 08:17:55;;;;;;;106.68;51.70;;;14.10;68.00;;;;;;5094764;28;20073;-78
2021/04/01 08:20:25;;;;;;;101.40;53.20;;;14.20;68.00;;;;;;5076416;28;20493;-80
2021/04/01 08:23:43;;;;;;;99.63;49.40;;;14.30;67.80;;;;;;5076366;28;20038;-79
2021/04/01 08:31:31;;;;;;;103.68;52.58;;;14.50;67.40;;;;;;5094091;28;20498;-79
2021/04/01 08:36:49;;;;;;;98.07;52.38;;;14.70;67.10;;;;;;5094165;28;20093;-79
2021/04/01 08:39:16;;;;;;;96.97;53.05;;;14.80;66.90;;;;;;5094262;28;20058;-79
2021/04/01 08:41:42;;;;;;;103.00;54.03;;;14.90;66.60;;;;;;5076003;28;20081;-80
2021/04/01 08:44:48;;;;;;;92.22;50.38;;;15.00;66.40;;;;;;5076169;28;20425;-80
2021/04/01 08:47:44;;;;;;;91.78;49.47;;;15.10;66.30;;;;;;5093101;28;20024;-80
2021/04/01 08:50:41;;;;;;;86.90;48.22;;;15.20;66.00;;;;;;5076018;28;20035;-79
2021/04/01 08:53:44;;;;;;;89.43;49.53;;;15.30;65.80;;;;;;5093978;28;20027;-79
2021/04/01 08:56:35;;;;;;;93.78;51.67;;;15.40;65.60;;;;;;5076181;28;20089;-79
2021/04/01 08:59:11;;;;;;;94.13;48.00;;;15.60;65.50;;;;;;5094072;28;20459;-78
2021/04/01 09:01:41;;;;;;;92.10;47.85;;;15.70;64.80;;;;;;5094342;28;20024;-78
2021/04/01 09:04:07;;;;;;;94.47;50.45;;;15.80;63.30;;;;;;5075841;28;20025;-78
2021/04/01 09:06:37;;;;;;;95.10;51.90;;;15.90;62.10;;;;;;5093715;28;20460;-79
2021/04/01 09:09:10;;;;;;;95.63;49.42;;;16.00;61.00;;;;;;5075468;28;20364;-78
2021/04/01 09:11:50;;;;;;;97.03;52.22;;;16.10;60.10;;;;;;5075551;28;20024;-79
2021/04/01 09:14:35;;;;;;;96.10;52.13;;;16.20;59.70;;;;;;5075782;28;20387;-79
2021/04/01 09:17:11;;;;;;;90.18;49.65;;;16.20;59.20;;;;;;5075377;28;20024;-79
2021/04/01 09:19:42;;;;;;;93.85;52.30;;;16.30;59.30;;;;;;5076254;28;20028;-75
2021/04/01 09:22:25;;;;;;;99.07;53.70;;;16.30;58.90;;;;;;5076034;28;20028;-75
2021/04/01 09:24:55;;;;;;;90.88;49.88;;;16.40;58.70;;;;;;5075386;28;20427;-74
2021/04/01 09:27:21;;;;;;;85.15;46.85;;;16.50;58.50;;;;;;5093466;28;20027;-76
2021/04/01 09:29:47;;;;;;;79.20;48.25;;;16.60;58.20;;;;;;5058977;28;20119;-75
2021/04/01 09:32:13;;;;;;;83.28;47.10;;;16.70;58.20;;;;;;5093462;28;20050;-75
2021/04/01 09:34:44;;;;;;;82.40;47.85;;;16.90;58.20;;;;;;5075240;28;20035;-76
2021/04/01 09:37:14;;;;;;;90.20;49.15;;;17.00;57.50;;;;;;5059268;28;20024;-76
2021/04/01 09:39:40;;;;;;;78.60;45.03;;;17.10;56.90;;;;;;5093541;28;20035;-75
2021/04/01 09:42:12;;;;;;;79.38;46.58;;;17.20;56.60;;;;;;5058775;28;20027;-75
2021/04/01 09:44:58;;;;;;;78.75;45.92;;;17.40;56.70;;;;;;5093418;28;20024;-75
2021/04/01 09:47:32;;;;;;;76.07;44.15;;;17.50;56.00;;;;;;5075372;28;20115;-75
2021/04/01 09:50:07;;;;;;;81.55;48.58;;;17.60;55.30;;;;;;5097352;28;20032;-76
2021/04/01 09:52:34;;;;;;;85.35;49.42;;;17.70;54.70;;;;;;5063490;28;20016;-76
2021/04/01 09:55:05;;;;;;;71.38;43.78;;;17.80;54.60;;;;;;5097576;28;20157;-76
2021/04/01 09:57:46;;;;;;;82.82;48.47;;;17.80;54.50;;;;;;5097534;28;20414;-75
2021/04/01 10:00:20;;;;;;;75.82;44.13;;;17.90;54.10;;;;;;5079934;28;20024;-75
2021/04/01 10:03:05;;;;;;;79.00;47.88;;;18.00;54.00;;;;;;5079625;28;20471;-75
2021/04/01 10:05:47;;;;;;;71.35;43.63;;;18.10;54.00;;;;;;5079169;28;20536;-75
2021/04/01 10:08:24;;;;;;;70.82;44.63;;;18.20;53.70;;;;;;5097566;28;20032;-79
2021/04/01 10:10:57;;;;;;;68.82;42.85;;;18.40;53.50;;;;;;5097326;28;20036;-79
2021/04/01 10:13:29;;;;;;;66.07;39.08;;;18.50;53.30;;;;;;5063534;28;20036;-78
2021/04/01 10:15:57;;;;;;;57.75;36.00;;;18.70;52.80;;;;;;5097111;28;20353;-81
2021/04/01 10:18:36;;;;;;;55.53;34.17;;;18.90;52.20;;;;;;5097094;28;20564;-78
2021/04/01 10:21:09;;;;;;;57.58;33.47;;;19.20;51.80;;;;;;5097004;28;20028;-79
2021/04/01 10:23:49;;;;;;;48.25;31.13;;;19.50;51.50;;;;;;5097044;28;20360;-79
2021/04/01 10:26:17;;;;;;;46.20;28.80;;;20.00;51.10;;;;;;5078718;28;20119;-79
2021/04/01 10:29:09;;;;;;;40.92;23.92;;;20.50;51.10;;;;;;5078826;28;20386;-80
2021/04/01 10:31:47;;;;;;;41.20;24.55;;;21.10;50.00;;;;;;5096621;28;20119;-81
2021/04/01 10:34:34;;;;;;;27.10;17.67;;;21.60;47.60;;;;;;5096694;28;20024;-79
2021/04/01 10:37:00;;;;;;;33.53;18.88;;;22.10;46.50;;;;;;5078894;28;20030;-76
2021/04/01 10:39:34;;;;;;;29.23;17.58;;;22.50;46.60;;;;;;5078620;28;20028;-73
2021/04/01 10:42:03;;;;;;;26.95;16.27;;;22.90;45.30;;;;;;5078452;28;20026;-76
2021/04/01 10:44:30;;;;;;;23.42;12.32;;;23.30;44.50;;;;;;5062425;28;20024;-77
2021/04/01 10:46:59;;;;;;;22.00;11.63;;;23.80;44.10;;;;;;5078724;28;20120;-76
2021/04/01 10:49:36;;;;;;;16.70;9.05;;;24.20;42.90;;;;;;5078778;28;20047;-76
2021/04/01 10:52:05;;;;;;;19.05;8.82;;;24.60;41.80;;;;;;5078398;28;20040;-77
2021/04/01 10:54:40;;;;;;;14.45;7.43;;;25.00;40.70;;;;;;5078351;28;20047;-76
2021/04/01 10:57:11;;;;;;;17.40;7.07;;;25.20;39.90;;;;;;5078715;28;20375;-76
2021/04/01 10:59:47;;;;;;;13.40;4.80;;;25.50;38.80;;;;;;5095775;28;20484;-77
2021/04/01 11:02:22;;;;;;;10.35;4.72;;;25.80;38.40;;;;;;5077997;28;20022;-76
2021/04/01 11:04:54;;;;;;;9.32;4.53;;;26.00;37.80;;;;;;5096127;28;20024;-75
2021/04/01 11:07:20;;;;;;;9.00;4.15;;;26.10;37.20;;;;;;5078231;28;20027;-75
2021/04/01 11:09:50;;;;;;;11.63;4.28;;;26.30;36.80;;;;;;5078630;28;20032;-76
2021/04/01 11:12:19;;;;;;;10.02;3.80;;;26.50;36.90;;;;;;5061246;28;20031;-76
2021/04/01 11:14:53;;;;;;;7.05;2.83;;;26.80;36.40;;;;;;5095870;28;20025;-76
2021/04/01 11:17:23;;;;;;;8.77;3.08;;;27.00;36.10;;;;;;5095851;28;20026;-76
2021/04/01 11:19:52;;;;;;;9.82;3.17;;;27.30;35.90;;;;;;5096130;28;20032;-76
2021/04/01 11:22:18;;;;;;;8.20;2.67;;;27.60;35.50;;;;;;5096151;28;20024;-76
2021/04/01 11:24:44;;;;;;;8.93;2.60;;;27.90;35.40;;;;;;5096373;28;20372;-76
2021/04/01 11:27:17;;;;;;;4.93;1.90;;;28.10;35.00;;;;;;5095600;28;20036;-76
2021/04/01 11:29:57;;;;;;;7.72;2.95;;;28.40;34.60;;;;;;5077880;28;20086;-75
2021/04/01 11:32:24;;;;;;;6.65;1.75;;;28.60;34.00;;;;;;5077680;28;20050;-81
2021/04/01 11:34:53;;;;;;;7.63;2.38;;;28.70;33.40;;;;;;5095442;28;20077;-79
2021/04/01 11:37:21;;;;;;;9.30;2.22;;;28.80;33.20;;;;;;5095979;28;20099;-79
2021/04/01 11:39:49;;;;;;;10.35;2.45;;;28.80;33.00;;;;;;5077319;28;20019;-81
2021/04/01 11:42:18;;;;;;;8.25;2.15;;;28.60;32.70;;;;;;5095311;28;20375;-80
2021/04/01 11:44:45;;;;;;;6.03;1.83;;;28.60;32.60;;;;;;5077072;28;20383;-80
2021/04/01 11:47:20;;;;;;;6.90;2.17;;;28.50;32.60;;;;;;5095062;28;20047;-76
2021/04/01 11:49:48;;;;;;;7.07;2.33;;;28.40;32.70;;;;;;5076834;28;20073;-76
2021/04/01 11:52:16;;;;;;;6.95;1.50;;;28.30;33.00;;;;;;5077159;28;20028;-76
2021/04/01 11:54:43;;;;;;;4.85;1.60;;;28.50;32.90;;;;;;5076852;28;20047;-76
2021/04/01 11:57:21;;;;;;;8.68;1.88;;;28.60;32.50;;;;;;5094755;28;20031;-76
2021/04/01 11:59:57;;;;;;;5.32;1.40;;;28.70;32.20;;;;;;5076600;28;20027;-75
2021/04/01 12:02:25;;;;;;;4.75;1.13;;;28.80;32.30;;;;;;5077733;28;20119;-76
2021/04/01 12:04:53;;;;;;;7.25;1.45;;;28.70;32.40;;;;;;5095439;28;20149;-76
2021/04/01 12:07:20;;;;;;;6.53;1.20;;;28.80;32.20;;;;;;5076989;28;20043;-76
2021/04/01 12:09:50;;;;;;;5.72;1.30;;;28.90;32.20;;;;;;5094944;28;20052;-76
2021/04/01 12:12:33;;;;;;;6.00;1.50;;;28.90;32.00;;;;;;5077672;28;20040;-75
2021/04/01 12:15:00;;;;;;;9.52;1.27;;;28.90;32.10;;;;;;5094822;28;20024;-76
2021/04/01 12:17:40;;;;;;;7.35;1.42;;;28.70;32.00;;;;;;5077016;28;20020;-76
2021/04/01 12:20:12;;;;;;;5.82;1.13;;;28.50;32.10;;;;;;5076615;28;20024;-76
2021/04/01 12:22:41;;;;;;;6.28;1.33;;;28.60;32.30;;;;;;5076534;28;20073;-75
2021/04/01 12:25:11;;;;;;;5.45;1.20;;;28.70;32.40;;;;;;5094608;28;20115;-75
2021/04/01 12:27:36;;;;;;;6.57;1.25;;;28.80;32.10;;;;;;5076217;28;20024;-76
2021/04/01 12:30:04;;;;;;;6.68;1.30;;;29.00;32.40;;;;;;5094624;28;20479;-75
2021/04/01 12:32:34;;;;;;;7.68;1.50;;;29.20;32.30;;;;;;5059558;28;20536;-76
2021/04/01 12:35:12;;;;;;;8.43;1.73;;;29.40;31.80;;;;;;5075986;28;20028;-76
2021/04/01 12:37:39;;;;;;;10.95;1.70;;;29.50;31.50;;;;;;5075756;28;20051;-75
2021/04/01 12:40:24;;;;;;;8.02;1.15;;;29.60;31.60;;;;;;5075867;28;20389;-76
2021/04/01 12:42:50;;;;;;;6.90;1.10;;;29.70;31.50;;;;;;5058842;28;20107;-76
2021/04/01 12:45:22;;;;;;;6.03;1.40;;;29.80;31.10;;;;;;5093803;28;20113;-79
2021/04/01 12:47:50;;;;;;;4.63;0.95;;;29.80;31.00;;;;;;5094153;28;20039;-80
2021/04/01 12:50:16;;;;;;;6.78;1.45;;;29.70;30.70;;;;;;5093810;28;20434;-80
2021/04/01 12:52:52;;;;;;;9.43;1.50;;;29.70;31.00;;;;;;5075365;28;20035;-80
2021/04/01 12:55:33;;;;;;;6.00;1.20;;;29.70;31.10;;;;;;5093819;28;20031;-80
2021/04/01 12:57:59;;;;;;;5.60;0.82;;;29.90;31.10;;;;;;5093800;28;20032;-79
2021/04/01 13:00:41;;;;;;;5.90;1.15;;;30.00;31.00;;;;;;5093456;28;20025;-80
2021/04/01 13:03:07;;;;;;;7.78;1.83;;;30.20;30.80;;;;;;5093787;28;20489;-79
2021/04/01 13:05:34;;;;;;;6.82;1.30;;;30.40;30.40;;;;;;5091377;28;20067;-79
2021/04/01 13:08:23;;;;;;;6.72;1.40;;;30.40;30.20;;;;;;5059076;28;20482;-79
2021/04/01 13:10:48;;;;;;;12.27;1.30;;;30.40;30.00;;;;;;5048248;28;20388;-78
2021/04/01 13:13:14;;;;;;;6.50;1.02;;;30.60;30.10;;;;;;5042190;28;20109;-78
2021/04/01 13:15:40;;;;;;;5.97;1.17;;;30.60;30.10;;;;;;5075783;28;20464;-80
2021/04/01 13:18:08;;;;;;;5.75;1.10;;;30.80;30.00;;;;;;5093369;28;20036;-81
2021/04/01 13:20:34;;;;;;;6.18;1.30;;;30.80;30.00;;;;;;5093298;28;20027;-78
2021/04/01 13:25:26;;;;;;;5.22;1.00;;;30.70;29.80;;;;;;5093716;28;20466;-80
2021/04/01 13:27:52;;;;;;;6.30;0.90;;;30.40;29.50;;;;;;5075018;28;20112;-80
2021/04/01 13:30:21;;;;;;;4.47;0.73;;;30.30;29.70;;;;;;5093255;28;20557;-79
2021/04/01 13:35:23;;;;;;;4.30;0.80;;;30.40;29.60;;;;;;5093724;28;20127;-82
2021/04/01 13:38:03;;;;;;;4.80;0.70;;;30.30;29.60;;;;;;5075552;28;20038;-81
2021/04/01 13:40:29;;;;;;;4.55;0.88;;;30.30;29.60;;;;;;5093445;28;20024;-79
2021/04/01 13:42:58;;;;;;;4.65;0.80;;;30.20;29.40;;;;;;5075014;28;20024;-81
2021/04/01 13:45:25;;;;;;;6.32;1.05;;;30.00;29.20;;;;;;5092873;28;20111;-79
2021/04/01 13:47:57;;;;;;;4.45;0.80;;;30.00;29.20;;;;;;5075178;28;20039;-80
2021/04/01 13:50:25;;;;;;;5.32;0.70;;;30.00;29.30;;;;;;5074995;28;20024;-80
2021/04/01 13:55:48;;;;;;;3.78;0.70;;;30.20;29.10;;;;;;5093126;28;20471;-81
2021/04/01 14:01:15;;;;;;;6.38;0.80;;;30.30;28.70;;;;;;5093403;28;20051;-80
2021/04/01 14:09:34;;;;;;;7.15;0.95;;;30.30;28.20;;;;;;5093474;28;20075;-81
2021/04/01 14:12:04;;;;;;;5.57;0.80;;;30.50;28.50;;;;;;5092945;28;20048;-79
2021/04/01 14:14:32;;;;;;;4.65;0.77;;;30.50;27.90;;;;;;5074864;28;20119;-80
2021/04/01 14:16:58;;;;;;;5.22;0.88;;;30.50;28.00;;;;;;5075351;28;20070;-77
2021/04/01 14:19:26;;;;;;;3.40;0.75;;;30.30;27.80;;;;;;5074749;28;20024;-78
2021/04/01 14:21:56;;;;;;;7.03;1.02;;;30.30;27.80;;;;;;5092619;28;20089;-81
2021/04/01 14:24:26;;;;;;;6.38;0.80;;;30.50;27.70;;;;;;5075512;28;20024;-82
2021/04/01 14:29:35;;;;;;;5.30;1.00;;;30.50;27.50;;;;;;5093201;28;20036;-80